Ashtabula, Ohio
Current Conditions -  °F | °C
As of 10:53 PM on Sunday 23 Nov 2014 (Local Time) from KHZY Reporting Station
Light Rain Light Rain  
Wind Chill: 50°   Ceiling: 6500
Heat Index: 50°   Visibility: 8mi
Dew Point: 45°   Wind: 17mph
Humidity: 83%   Direction: 140°SE
Pressure: 29.5"   Gusts: 24mph
Location:  41.89°N, 80.79°W
Report Text: KHZY 240353Z AUTO 14015G21KT 8SM -RA BKN065 OVC090 10/07 A2950 RMK AO2 SLP992 P0002 T01000072
Loading
Personal Weather Stations






























Interactive Weather Map New forecast layout! Learn more

10-Day Weather Forecast

Advertisements
Track Severe Weather on mobile